Time;durP1;ratioP1;P1;durP2;ratioP2;P2;SDS_P1;SDS_P2;PMS_P1;PMS_P2;Temp;Humidity;BMP_temperature;BMP_pressure;BME280_temperature;BME280_humidity;BME280_pressure;Samples;Min_cycle;Max_cycle;Signal;HPM_P1;HPM_P2
2023/09/09 00:02:10;;;;;;;13.33;12.13;;;20.30;1.00;;;;;;5115661;28;20183;-37
2023/09/09 00:04:35;;;;;;;11.93;11.03;;;20.20;1.00;;;;;;5115178;28;20410;-43
2023/09/09 00:07:03;;;;;;;11.80;10.80;;;20.20;1.00;;;;;;5115482;28;20222;-37
2023/09/09 00:09:31;;;;;;;12.30;11.27;;;20.20;1.00;;;;;;5115683;28;20172;-43
2023/09/09 00:11:57;;;;;;;11.87;10.87;;;20.20;1.00;;;;;;5115486;28;20825;-37
2023/09/09 00:14:23;;;;;;;12.13;11.13;;;20.20;1.00;;;;;;5113913;28;20449;-38
2023/09/09 00:16:48;;;;;;;12.73;11.73;;;20.20;1.00;;;;;;5113669;28;20255;-37
2023/09/09 00:19:14;;;;;;;11.73;10.80;;;20.10;1.00;;;;;;5115275;28;20184;-36
2023/09/09 00:21:39;;;;;;;10.63;9.83;;;20.10;1.00;;;;;;5113990;28;20180;-38
2023/09/09 00:24:05;;;;;;;12.20;11.10;;;20.10;38.10;;;;;;5115375;28;20606;-41
2023/09/09 00:26:31;;;;;;;13.10;12.00;;;20.10;8.60;;;;;;5114780;28;20340;-39
2023/09/09 00:28:57;;;;;;;12.87;11.87;;;20.10;1.00;;;;;;5113842;28;20475;-43
2023/09/09 00:31:23;;;;;;;11.63;10.73;;;20.10;30.60;;;;;;5114275;28;20413;-42
2023/09/09 00:33:49;;;;;;;11.40;10.43;;;20.10;99.90;;;;;;5114645;28;20417;-40
2023/09/09 00:36:15;;;;;;;11.10;10.20;;;20.10;25.50;;;;;;5114070;28;20211;-42
2023/09/09 00:38:40;;;;;;;11.37;10.47;;;20.00;92.30;;;;;;5114283;28;20199;-39
2023/09/09 00:41:14;;;;;;;11.77;10.87;;;20.00;15.80;;;;;;5114656;28;20194;-41
2023/09/09 00:43:40;;;;;;;11.87;10.87;;;20.00;65.00;;;;;;5117522;28;20591;-41
2023/09/09 00:46:08;;;;;;;11.10;10.13;;;20.00;75.10;;;;;;5135292;27;20436;-41
2023/09/09 00:48:34;;;;;;;11.10;10.30;;;19.90;99.90;;;;;;5139705;27;20415;-37
2023/09/09 00:51:00;;;;;;;12.40;11.40;;;19.90;99.90;;;;;;5140120;27;20449;-40
2023/09/09 00:53:26;;;;;;;11.30;10.30;;;19.90;99.90;;;;;;5139823;27;20432;-36
2023/09/09 00:55:52;;;;;;;11.57;10.57;;;19.90;99.90;;;;;;5118013;27;20466;-36
2023/09/09 00:58:18;;;;;;;11.80;10.80;;;19.80;99.90;;;;;;5104989;28;20206;-36
2023/09/09 01:00:44;;;;;;;12.67;11.67;;;19.90;99.90;;;;;;5133426;27;20508;-39
2023/09/09 01:03:10;;;;;;;11.67;10.67;;;19.90;99.90;;;;;;5138790;27;20779;-37
2023/09/09 01:05:36;;;;;;;13.03;11.87;;;19.80;99.90;;;;;;5135587;27;20186;-36
2023/09/09 01:08:02;;;;;;;11.40;10.50;;;19.80;99.90;;;;;;5116685;28;20296;-36
2023/09/09 01:10:28;;;;;;;12.63;11.67;;;19.90;99.90;;;;;;5117403;28;20513;-37
2023/09/09 01:12:53;;;;;;;11.70;10.70;;;19.90;99.90;;;;;;5116696;28;20405;-36
2023/09/09 01:15:19;;;;;;;11.60;10.60;;;19.80;99.90;;;;;;5114812;28;20180;-38
2023/09/09 01:17:45;;;;;;;12.83;11.63;;;19.80;99.90;;;;;;5117903;28;20198;-36
2023/09/09 01:20:14;;;;;;;12.03;10.93;;;19.80;99.90;;;;;;5116743;28;20183;-40
2023/09/09 01:22:44;;;;;;;11.60;10.70;;;19.90;99.90;;;;;;5116127;28;20437;-40
2023/09/09 01:25:10;;;;;;;11.97;10.97;;;19.90;99.90;;;;;;5115047;28;20834;-38
2023/09/09 01:27:36;;;;;;;12.40;11.30;;;20.00;99.90;;;;;;5114860;27;20464;-41
2023/09/09 01:30:04;;;;;;;12.30;11.30;;;20.00;99.90;;;;;;5114909;28;20417;-36
2023/09/09 01:32:30;;;;;;;14.40;10.83;;;20.00;87.50;;;;;;5115575;28;20245;-41
2023/09/09 01:34:55;;;;;;;12.17;11.17;;;20.00;1.00;;;;;;5115757;28;20447;-42
2023/09/09 01:37:21;;;;;;;12.10;11.20;;;20.10;1.00;;;;;;5115238;28;20471;-40
2023/09/09 01:39:47;;;;;;;14.07;12.77;;;20.10;1.00;;;;;;5116330;28;20211;-35
2023/09/09 01:42:14;;;;;;;10.87;9.97;;;20.10;1.00;;;;;;5115023;28;20183;-37
2023/09/09 01:44:40;;;;;;;11.23;10.23;;;20.00;1.00;;;;;;5115159;28;20470;-40
2023/09/09 01:47:06;;;;;;;11.30;10.30;;;20.00;1.00;;;;;;5115485;28;20481;-38
2023/09/09 01:49:31;;;;;;;12.63;11.63;;;20.00;1.00;;;;;;5116630;28;20886;-36
2023/09/09 01:51:57;;;;;;;12.00;11.00;;;20.00;1.00;;;;;;5116670;28;20350;-36
2023/09/09 01:54:23;;;;;;;11.10;10.10;;;20.00;1.00;;;;;;5116547;28;20490;-35
2023/09/09 01:56:48;;;;;;;11.27;10.37;;;19.90;1.00;;;;;;5117655;28;20270;-39
2023/09/09 01:59:14;;;;;;;12.40;11.40;;;19.90;1.00;;;;;;5117431;28;20184;-39
2023/09/09 02:01:39;;;;;;;12.57;11.50;;;19.90;1.00;;;;;;5117009;28;20187;-36
2023/09/09 02:04:05;;;;;;;11.53;10.53;;;19.90;1.00;;;;;;5117040;28;20270;-37
2023/09/09 02:06:31;;;;;;;10.47;9.63;;;19.80;1.00;;;;;;5117514;28;20215;-34
2023/09/09 02:08:56;;;;;;;11.03;10.13;;;19.80;1.00;;;;;;5118601;28;20266;-36
2023/09/09 02:11:22;;;;;;;11.07;9.93;;;19.80;1.00;;;;;;5117024;28;20192;-42
2023/09/09 02:13:48;;;;;;;11.40;10.50;;;19.80;1.00;;;;;;5118123;28;20198;-45
2023/09/09 02:16:13;;;;;;;11.20;10.30;;;19.80;29.90;;;;;;5116636;28;20179;-36
2023/09/09 02:18:39;;;;;;;11.80;10.90;;;19.80;1.00;;;;;;5117466;28;20562;-39
2023/09/09 02:21:06;;;;;;;12.60;11.40;;;19.80;15.50;;;;;;5118358;28;20221;-36
2023/09/09 02:23:32;;;;;;;13.10;11.87;;;19.80;14.40;;;;;;5118086;28;20498;-41
2023/09/09 02:25:58;;;;;;;11.50;10.40;;;19.80;92.40;;;;;;5118081;28;20467;-41
2023/09/09 02:28:24;;;;;;;12.63;11.63;;;19.80;99.90;;;;;;5117593;28;20500;-37
2023/09/09 02:30:50;;;;;;;11.67;10.77;;;19.80;99.90;;;;;;5117289;28;20175;-37
2023/09/09 02:33:15;;;;;;;11.30;10.43;;;19.80;99.90;;;;;;5117713;28;20465;-38
2023/09/09 02:35:42;;;;;;;13.20;12.13;;;19.80;99.90;;;;;;5117867;28;20251;-37
2023/09/09 02:38:07;;;;;;;11.60;10.80;;;19.80;99.90;;;;;;5117156;28;20635;-38
2023/09/09 02:40:33;;;;;;;11.90;11.10;;;19.80;99.90;;;;;;5117784;28;20718;-38
2023/09/09 02:42:59;;;;;;;12.27;11.17;;;19.70;99.90;;;;;;5116410;28;20241;-36
2023/09/09 02:45:24;;;;;;;12.00;11.00;;;19.70;99.90;;;;;;5117495;28;20435;-37
2023/09/09 02:47:50;;;;;;;11.50;10.40;;;19.70;99.90;;;;;;5116375;28;20207;-36
2023/09/09 02:50:16;;;;;;;12.40;11.37;;;19.70;99.90;;;;;;5116291;28;20274;-38
2023/09/09 02:53:15;;;;;;;11.00;10.20;;;19.60;99.90;;;;;;5117897;28;20184;-37
2023/09/09 02:55:41;;;;;;;11.00;10.17;;;19.60;99.90;;;;;;5131584;27;20227;-39
2023/09/09 02:58:10;;;;;;;12.40;11.40;;;19.60;99.90;;;;;;5137233;27;21149;-39
2023/09/09 03:00:36;;;;;;;11.60;10.60;;;19.60;99.90;;;;;;5137865;27;20179;-36
2023/09/09 03:03:01;;;;;;;11.83;10.83;;;19.60;99.90;;;;;;5136540;27;20826;-41
2023/09/09 03:05:27;;;;;;;10.67;9.80;;;19.60;99.90;;;;;;5135301;27;20186;-41
2023/09/09 03:07:53;;;;;;;11.13;10.30;;;19.60;99.90;;;;;;5135715;27;20725;-37
2023/09/09 03:10:18;;;;;;;11.33;10.43;;;19.60;99.90;;;;;;5135702;27;20395;-38
2023/09/09 03:12:44;;;;;;;11.80;10.80;;;19.60;99.90;;;;;;5135330;27;20185;-36
2023/09/09 03:15:09;;;;;;;11.20;10.20;;;19.60;99.90;;;;;;5135784;27;20278;-36
2023/09/09 03:17:35;;;;;;;12.00;10.80;;;19.60;99.90;;;;;;5134942;27;20637;-36
2023/09/09 03:20:01;;;;;;;12.63;11.60;;;19.60;99.90;;;;;;5134405;27;20278;-38
2023/09/09 03:22:26;;;;;;;12.30;11.30;;;19.60;99.90;;;;;;5135031;27;20197;-36
2023/09/09 03:24:52;;;;;;;12.47;11.17;;;19.60;99.90;;;;;;5136738;27;20219;-36
2023/09/09 03:27:21;;;;;;;11.70;10.70;;;19.60;99.90;;;;;;5137773;27;20218;-36
2023/09/09 03:29:46;;;;;;;13.07;12.00;;;19.50;99.90;;;;;;5137226;28;20427;-36
2023/09/09 03:32:12;;;;;;;12.80;11.73;;;19.50;99.90;;;;;;5137195;28;20519;-38
2023/09/09 03:34:38;;;;;;;11.90;10.90;;;19.50;99.90;;;;;;5138087;28;20198;-36
2023/09/09 03:37:04;;;;;;;12.63;11.63;;;19.40;99.90;;;;;;5137767;28;20179;-36
2023/09/09 03:39:30;;;;;;;12.30;11.30;;;19.40;1.00;;;;;;5137552;28;20503;-37
2023/09/09 03:41:55;;;;;;;12.60;11.50;;;19.40;1.00;;;;;;5137504;28;20175;-36
2023/09/09 03:44:21;;;;;;;11.47;10.57;;;19.40;1.00;;;;;;5137013;28;20174;-38
2023/09/09 03:46:47;;;;;;;11.50;10.30;;;19.40;1.00;;;;;;5136921;28;20244;-35
2023/09/09 03:49:12;;;;;;;11.83;10.93;;;19.40;1.00;;;;;;5137091;28;20187;-36
2023/09/09 03:51:38;;;;;;;11.03;10.23;;;19.40;1.00;;;;;;5137095;28;20270;-37
2023/09/09 03:54:04;;;;;;;10.53;9.63;;;19.40;1.00;;;;;;5136553;28;20593;-38
2023/09/09 03:56:29;;;;;;;11.50;10.60;;;19.40;1.00;;;;;;5136319;28;20233;-38
2023/09/09 03:58:55;;;;;;;12.30;11.20;;;19.40;1.00;;;;;;5136641;28;20246;-38
2023/09/09 04:01:20;;;;;;;12.70;11.70;;;19.40;1.00;;;;;;5136922;28;20243;-36
2023/09/09 04:03:46;;;;;;;12.00;11.03;;;19.40;1.00;;;;;;5137271;28;20422;-36
2023/09/09 04:06:13;;;;;;;12.17;11.27;;;19.40;1.00;;;;;;5136518;28;20199;-37
2023/09/09 04:08:40;;;;;;;12.70;11.70;;;19.40;1.00;;;;;;5136786;28;20449;-38
2023/09/09 04:11:06;;;;;;;11.40;10.60;;;19.40;1.00;;;;;;5136287;28;20416;-36
2023/09/09 04:13:32;;;;;;;11.60;10.70;;;19.30;1.00;;;;;;5136271;28;20413;-36
2023/09/09 04:15:58;;;;;;;12.77;11.67;;;19.40;1.00;;;;;;5137343;27;20417;-38
2023/09/09 04:18:25;;;;;;;12.03;10.93;;;19.30;1.00;;;;;;5139460;27;20417;-41
2023/09/09 04:20:50;;;;;;;10.73;9.90;;;19.30;1.00;;;;;;5139484;27;20423;-40
2023/09/09 04:23:17;;;;;;;12.60;11.60;;;19.30;1.00;;;;;;5138640;27;20417;-36
2023/09/09 04:25:46;;;;;;;12.20;11.30;;;19.30;1.00;;;;;;5138910;27;20175;-39
2023/09/09 04:28:12;;;;;;;12.03;11.03;;;19.30;1.00;;;;;;5139317;27;20567;-36
2023/09/09 04:30:39;;;;;;;11.77;10.80;;;19.30;1.00;;;;;;5138769;27;20424;-41
2023/09/09 04:33:11;;;;;;;11.77;10.70;;;19.30;1.00;;;;;;5135857;27;20524;-42
2023/09/09 04:35:38;;;;;;;12.23;11.23;;;19.30;1.00;;;;;;5136650;27;20793;-39
2023/09/09 04:38:03;;;;;;;12.13;11.00;;;19.30;1.00;;;;;;5138795;27;20493;-39
2023/09/09 04:40:29;;;;;;;12.17;11.07;;;19.20;1.00;;;;;;5138596;27;20428;-40
2023/09/09 04:42:54;;;;;;;11.47;10.57;;;19.20;1.00;;;;;;5138185;27;20537;-38
2023/09/09 04:45:20;;;;;;;12.30;11.20;;;19.20;1.00;;;;;;5137010;27;20522;-40
2023/09/09 04:47:46;;;;;;;12.10;11.00;;;19.20;1.00;;;;;;5139478;27;20245;-36
2023/09/09 04:50:13;;;;;;;12.57;11.47;;;19.20;1.00;;;;;;5139298;27;20445;-41
2023/09/09 04:52:38;;;;;;;12.97;11.97;;;19.20;1.00;;;;;;5139747;27;20178;-36
2023/09/09 04:55:04;;;;;;;12.53;11.47;;;19.20;1.00;;;;;;5139159;27;20762;-35
2023/09/09 04:57:30;;;;;;;12.40;11.30;;;19.20;1.00;;;;;;5140346;27;20194;-36
2023/09/09 05:00:07;;;;;;;12.30;11.20;;;19.20;1.00;;;;;;5140618;27;20323;-36
2023/09/09 05:02:34;;;;;;;11.60;10.70;;;19.20;1.00;;;;;;5138170;27;20247;-38
2023/09/09 05:05:03;;;;;;;12.57;11.57;;;19.20;1.00;;;;;;5138374;27;20706;-41
2023/09/09 05:10:51;;;;;;;12.87;11.83;;;19.20;1.00;;;;;;5135936;27;20908;-39
2023/09/09 05:13:16;;;;;;;12.73;11.73;;;19.30;4.20;;;;;;5137933;27;20833;-36
2023/09/09 05:15:42;;;;;;;12.00;11.10;;;19.30;1.00;;;;;;5137422;27;20174;-38
2023/09/09 05:18:08;;;;;;;12.47;11.50;;;19.30;1.00;;;;;;5137730;27;20197;-39
2023/09/09 05:20:33;;;;;;;12.40;11.40;;;19.30;1.00;;;;;;5138927;27;20448;-40
2023/09/09 05:22:59;;;;;;;13.77;12.47;;;19.30;1.00;;;;;;5138626;27;20274;-40
2023/09/09 05:25:25;;;;;;;12.17;11.17;;;19.30;1.00;;;;;;5138456;27;20179;-40
2023/09/09 05:27:51;;;;;;;11.90;11.00;;;19.30;1.00;;;;;;5137867;27;20596;-37
2023/09/09 05:30:17;;;;;;;13.33;12.33;;;19.30;1.00;;;;;;5137996;27;20402;-38
2023/09/09 05:32:42;;;;;;;12.70;11.70;;;19.30;1.00;;;;;;5135796;27;20484;-52
2023/09/09 05:35:10;;;;;;;12.30;11.33;;;19.30;1.00;;;;;;5135476;27;20285;-36
2023/09/09 05:37:36;;;;;;;11.80;10.80;;;19.30;1.00;;;;;;5135383;27;20191;-36
2023/09/09 05:40:02;;;;;;;13.33;12.33;;;19.40;99.90;;;;;;5136163;27;20424;-36
2023/09/09 05:42:28;;;;;;;12.30;11.23;;;19.30;1.00;;;;;;5136012;27;20199;-36
2023/09/09 05:44:54;;;;;;;13.20;12.20;;;19.30;99.90;;;;;;5134709;27;20421;-40
2023/09/09 05:47:19;;;;;;;11.57;10.57;;;19.40;99.90;;;;;;5135098;27;20472;-41
2023/09/09 05:49:45;;;;;;;11.13;10.20;;;19.40;99.90;;;;;;5134283;27;20171;-42
2023/09/09 05:52:12;;;;;;;11.20;10.20;;;19.40;99.90;;;;;;5136479;27;20238;-37
2023/09/09 05:54:38;;;;;;;12.50;11.47;;;19.50;1.00;;;;;;5137028;27;20190;-38
2023/09/09 05:57:04;;;;;;;11.80;10.90;;;19.50;99.90;;;;;;5137784;27;20822;-40
2023/09/09 05:59:30;;;;;;;13.07;11.90;;;19.60;99.90;;;;;;5134298;27;20175;-39
2023/09/09 06:01:56;;;;;;;12.93;11.93;;;19.70;99.90;;;;;;5132330;27;20444;-42
2023/09/09 06:04:22;;;;;;;12.80;11.80;;;19.80;99.90;;;;;;5132476;27;20183;-37
2023/09/09 06:06:48;;;;;;;15.07;13.77;;;19.90;99.90;;;;;;5132832;27;20211;-37
2023/09/09 06:09:14;;;;;;;14.40;13.20;;;20.10;99.90;;;;;;5133310;27;20584;-42
2023/09/09 06:11:39;;;;;;;13.90;12.60;;;20.10;52.70;;;;;;5115230;27;20900;-40
2023/09/09 06:14:05;;;;;;;13.87;12.67;;;20.30;2.80;;;;;;5135229;27;20424;-37
2023/09/09 06:16:32;;;;;;;12.60;11.60;;;20.50;1.00;;;;;;5133773;27;20287;-37
2023/09/09 06:18:58;;;;;;;13.93;12.77;;;20.70;1.00;;;;;;5134899;27;20191;-39
2023/09/09 06:21:24;;;;;;;15.17;13.97;;;20.90;99.90;;;;;;5134188;27;20401;-47
2023/09/09 06:23:50;;;;;;;14.77;13.57;;;21.10;98.20;;;;;;5132086;27;20417;-47
2023/09/09 06:26:16;;;;;;;15.40;14.20;;;21.30;1.00;;;;;;5133891;27;20530;-47
2023/09/09 06:28:41;;;;;;;17.63;16.07;;;21.30;1.00;;;;;;5134580;27;20189;-43
2023/09/09 06:31:07;;;;;;;14.73;13.37;;;21.40;1.00;;;;;;5133611;27;20187;-45
2023/09/09 06:33:33;;;;;;;15.50;14.30;;;21.50;1.50;;;;;;5134237;27;20175;-44
2023/09/09 06:35:59;;;;;;;15.20;13.90;;;21.50;1.00;;;;;;5133808;27;20213;-41
2023/09/09 06:38:25;;;;;;;14.30;13.20;;;21.60;1.00;;;;;;5134008;27;20723;-43
2023/09/09 06:40:50;;;;;;;15.40;14.20;;;21.70;1.00;;;;;;5132385;27;20513;-45
2023/09/09 06:43:20;;;;;;;17.50;16.00;;;21.70;1.00;;;;;;5133105;27;20700;-42
2023/09/09 06:45:47;;;;;;;16.43;15.13;;;21.70;99.90;;;;;;5132742;27;20262;-45
2023/09/09 06:48:17;;;;;;;15.87;14.57;;;21.70;1.00;;;;;;5133481;27;20456;-45
2023/09/09 06:50:46;;;;;;;15.47;14.20;;;21.70;1.00;;;;;;5133397;27;20760;-43
2023/09/09 06:53:12;;;;;;;15.80;14.50;;;21.80;1.00;;;;;;5132711;27;20694;-47
2023/09/09 06:55:41;;;;;;;16.17;14.87;;;22.00;1.00;;;;;;5134981;27;20499;-47
2023/09/09 06:58:07;;;;;;;15.47;14.27;;;22.10;1.00;;;;;;5134507;27;20433;-44
2023/09/09 07:00:33;;;;;;;16.17;14.50;;;22.20;99.90;;;;;;5135663;27;20432;-44
2023/09/09 07:02:58;;;;;;;15.90;14.50;;;22.30;99.90;;;;;;5133912;27;20452;-41
2023/09/09 07:05:24;;;;;;;16.03;14.70;;;22.50;99.90;;;;;;5134098;27;20185;-42
2023/09/09 07:07:50;;;;;;;14.63;13.43;;;22.60;1.00;;;;;;5133276;27;20457;-47
2023/09/09 07:10:16;;;;;;;14.63;13.53;;;22.70;1.00;;;;;;5133312;27;20496;-47
2023/09/09 07:12:42;;;;;;;13.80;12.70;;;23.00;99.90;;;;;;5133197;27;20268;-43
2023/09/09 07:15:08;;;;;;;14.50;13.40;;;23.20;99.90;;;;;;5133040;27;20184;-46
2023/09/09 07:17:34;;;;;;;14.27;13.07;;;23.40;1.00;;;;;;5133120;27;20720;-44
2023/09/09 07:20:00;;;;;;;14.03;12.73;;;23.50;1.00;;;;;;5135765;27;20830;-43
2023/09/09 07:22:26;;;;;;;13.93;12.73;;;23.70;99.90;;;;;;5137159;27;20179;-43
2023/09/09 07:24:53;;;;;;;14.20;12.87;;;23.80;99.90;;;;;;5117556;27;20277;-45
2023/09/09 07:27:19;;;;;;;13.90;12.80;;;23.90;94.90;;;;;;5136421;27;20460;-44
2023/09/09 07:29:45;;;;;;;14.20;13.10;;;24.00;33.80;;;;;;5135675;27;20507;-44
2023/09/09 07:32:10;;;;;;;14.40;13.30;;;24.30;6.30;;;;;;5136583;27;20810;-43
2023/09/09 07:34:36;;;;;;;14.70;13.30;;;24.50;1.00;;;;;;5137433;27;20182;-44
2023/09/09 07:37:02;;;;;;;14.63;13.43;;;24.70;1.00;;;;;;5136709;27;20187;-47
2023/09/09 07:39:28;;;;;;;15.10;13.97;;;24.70;1.00;;;;;;5135723;28;20179;-44
2023/09/09 07:41:53;;;;;;;12.60;11.70;;;24.80;1.00;;;;;;5135621;27;20183;-42
2023/09/09 07:44:19;;;;;;;14.73;13.37;;;24.80;1.00;;;;;;5134759;27;20716;-44
2023/09/09 07:46:45;;;;;;;14.60;13.30;;;25.00;1.00;;;;;;5137031;28;20233;-45
2023/09/09 07:49:10;;;;;;;13.10;12.00;;;25.20;1.00;;;;;;5137108;28;20270;-43
2023/09/09 07:51:36;;;;;;;13.90;12.80;;;25.40;1.00;;;;;;5137647;27;20179;-44
2023/09/09 07:54:02;;;;;;;14.53;13.43;;;25.70;99.90;;;;;;5140970;27;20179;-44
2023/09/09 07:56:28;;;;;;;12.20;11.30;;;25.70;99.90;;;;;;5121665;27;20182;-45
2023/09/09 07:58:53;;;;;;;16.83;13.90;;;25.90;99.90;;;;;;5139067;27;20252;-46
2023/09/09 08:01:19;;;;;;;14.03;12.80;;;26.20;99.90;;;;;;5139897;27;20182;-48
2023/09/09 08:03:45;;;;;;;13.70;12.70;;;26.50;99.90;;;;;;5139138;27;20700;-33
2023/09/09 08:06:10;;;;;;;12.17;11.27;;;26.80;99.90;;;;;;5139963;27;20183;-46
2023/09/09 08:08:36;;;;;;;13.23;12.20;;;27.00;99.90;;;;;;5139401;27;20611;-44
2023/09/09 08:11:05;;;;;;;12.43;11.53;;;27.40;99.90;;;;;;5138810;27;20230;-46
2023/09/09 08:13:31;;;;;;;13.20;12.23;;;27.70;99.90;;;;;;5138160;27;20473;-48
2023/09/09 08:15:58;;;;;;;12.97;11.87;;;27.90;99.20;;;;;;5139307;27;20401;-47
2023/09/09 08:18:23;;;;;;;13.53;12.30;;;28.20;34.40;;;;;;5122776;27;20450;-38
2023/09/09 08:20:52;;;;;;;13.43;12.23;;;28.40;38.70;;;;;;5140392;27;20420;-45
2023/09/09 08:23:18;;;;;;;13.53;12.43;;;28.70;27.90;;;;;;5140931;27;20443;-46
2023/09/09 08:25:44;;;;;;;13.70;12.67;;;28.90;1.00;;;;;;5140069;27;20426;-35
2023/09/09 08:28:10;;;;;;;14.00;12.97;;;29.00;1.00;;;;;;5139392;27;20226;-35
2023/09/09 08:30:36;;;;;;;12.80;11.90;;;29.10;1.00;;;;;;5138986;27;20404;-37
2023/09/09 08:33:02;;;;;;;11.87;11.03;;;29.20;1.00;;;;;;5140645;27;20172;-35
2023/09/09 08:35:30;;;;;;;12.47;11.47;;;29.20;1.00;;;;;;5140406;27;20187;-44
2023/09/09 08:37:56;;;;;;;12.87;11.80;;;29.50;1.00;;;;;;5121975;27;20286;-44
2023/09/09 08:40:21;;;;;;;12.77;11.87;;;29.60;1.00;;;;;;5139363;27;20470;-46
2023/09/09 08:43:05;;;;;;;14.07;12.90;;;29.70;1.00;;;;;;5139885;27;20479;-44
2023/09/09 08:46:03;;;;;;;12.67;11.77;;;29.80;1.00;;;;;;5138669;27;20343;-44
2023/09/09 08:48:33;;;;;;;12.40;11.43;;;29.60;1.00;;;;;;5120929;27;20896;-44
2023/09/09 08:51:01;;;;;;;12.57;11.67;;;29.50;1.00;;;;;;5120723;27;20739;-43
2023/09/09 08:53:28;;;;;;;11.90;11.07;;;29.60;1.00;;;;;;5118397;27;20433;-43
2023/09/09 08:55:55;;;;;;;11.00;10.13;;;30.00;1.00;;;;;;5119643;27;20478;-43
2023/09/09 08:58:22;;;;;;;11.17;10.37;;;30.40;1.00;;;;;;5119918;27;20697;-44
2023/09/09 09:00:47;;;;;;;12.40;11.50;;;30.80;1.00;;;;;;5120217;27;20544;-46
2023/09/09 09:03:14;;;;;;;12.43;11.43;;;31.10;1.00;;;;;;5135964;27;20423;-45
2023/09/09 09:05:41;;;;;;;11.93;11.10;;;31.30;1.00;;;;;;5118755;27;20845;-47
2023/09/09 09:08:08;;;;;;;11.80;10.70;;;31.60;1.00;;;;;;5118307;27;20454;-47
2023/09/09 09:10:34;;;;;;;12.10;11.10;;;32.00;1.00;;;;;;5136120;27;20464;-37
2023/09/09 09:13:00;;;;;;;11.40;10.40;;;32.30;1.00;;;;;;5139001;27;20420;-44
2023/09/09 09:15:25;;;;;;;11.97;10.97;;;32.60;1.00;;;;;;5138097;27;20171;-48
2023/09/09 09:17:54;;;;;;;12.60;11.50;;;32.90;1.00;;;;;;5118045;27;20205;-43
2023/09/09 09:20:27;;;;;;;11.43;10.53;;;33.10;1.00;;;;;;5136200;27;20587;-43
2023/09/09 09:22:57;;;;;;;11.60;10.77;;;33.40;1.00;;;;;;5138668;27;20435;-39
2023/09/09 09:25:23;;;;;;;11.37;10.50;;;33.50;1.00;;;;;;5137976;27;20432;-42
2023/09/09 09:27:49;;;;;;;11.43;10.43;;;33.80;1.00;;;;;;5137148;27;20471;-43
2023/09/09 09:30:18;;;;;;;10.53;9.60;;;33.90;1.00;;;;;;5136875;27;20417;-44
2023/09/09 09:32:44;;;;;;;10.23;9.43;;;34.20;1.00;;;;;;5118553;27;20186;-45
2023/09/09 09:35:29;;;;;;;9.77;9.07;;;34.50;1.00;;;;;;5138088;27;20676;-46
2023/09/09 09:37:58;;;;;;;9.70;8.70;;;34.70;1.00;;;;;;5137148;27;20182;-44
2023/09/09 09:40:28;;;;;;;11.07;9.33;;;35.10;1.00;;;;;;5138542;27;20591;-43
2023/09/09 09:42:54;;;;;;;10.50;9.70;;;35.40;1.00;;;;;;5137338;27;20386;-44
2023/09/09 09:45:27;;;;;;;10.47;9.67;;;35.80;1.00;;;;;;5137140;27;20397;-46
2023/09/09 09:47:54;;;;;;;10.90;9.90;;;36.10;1.00;;;;;;5135911;27;20747;-46
2023/09/09 09:50:32;;;;;;;9.20;8.50;;;36.30;1.00;;;;;;5136605;27;20511;-44
2023/09/09 09:53:02;;;;;;;10.13;9.00;;;36.20;1.00;;;;;;5136793;27;20444;-43
2023/09/09 09:55:30;;;;;;;8.90;8.10;;;36.10;1.00;;;;;;5137367;27;20477;-43
2023/09/09 09:58:00;;;;;;;9.67;8.77;;;36.10;1.00;;;;;;5134965;27;20380;-44
2023/09/09 10:00:26;;;;;;;9.20;8.40;;;36.30;1.00;;;;;;5133113;27;20618;-47
2023/09/09 10:02:56;;;;;;;10.17;8.50;;;36.60;1.00;;;;;;5133878;27;20399;-44
2023/09/09 10:05:24;;;;;;;10.70;7.80;;;36.70;1.00;;;;;;5134267;27;20537;-45
2023/09/09 10:08:16;;;;;;;7.90;7.10;;;36.20;1.00;;;;;;5134048;27;20474;-46
2023/09/09 10:10:51;;;;;;;14.13;7.57;;;36.30;1.00;;;;;;5135593;27;20640;-44
2023/09/09 10:13:30;;;;;;;8.53;7.70;;;36.30;1.00;;;;;;5134168;27;20416;-46
2023/09/09 10:15:57;;;;;;;9.10;8.03;;;36.60;1.00;;;;;;5117324;27;20784;-44
2023/09/09 10:18:24;;;;;;;9.70;8.17;;;37.00;1.00;;;;;;5135295;27;20401;-46
2023/09/09 10:20:52;;;;;;;10.47;8.40;;;37.20;1.00;;;;;;5116457;27;20423;-46
2023/09/09 10:23:20;;;;;;;9.23;8.30;;;37.30;1.00;;;;;;5136159;27;20436;-40
2023/09/09 10:25:46;;;;;;;10.57;7.93;;;37.40;1.00;;;;;;5101128;27;20509;-42
2023/09/09 10:28:12;;;;;;;8.87;8.00;;;37.80;1.00;;;;;;5118611;27;20447;-42
2023/09/09 10:30:38;;;;;;;8.67;7.87;;;38.10;1.00;;;;;;5136162;27;20404;-35
2023/09/09 10:33:08;;;;;;;8.10;7.30;;;38.40;1.00;;;;;;5117893;27;20668;-39
2023/09/09 10:35:34;;;;;;;10.30;7.20;;;38.80;1.00;;;;;;5119099;27;20213;-40
2023/09/09 10:38:00;;;;;;;8.53;7.63;;;39.00;1.00;;;;;;5116473;27;20424;-40
2023/09/09 10:40:26;;;;;;;9.43;8.40;;;39.40;1.00;;;;;;5117714;27;20605;-36
2023/09/09 10:42:51;;;;;;;8.53;7.90;;;39.70;1.00;;;;;;5136068;27;20495;-40
2023/09/09 10:45:28;;;;;;;7.57;6.87;;;40.00;1.00;;;;;;5116800;27;20842;-50
2023/09/09 10:48:03;;;;;;;11.47;7.87;;;40.30;1.00;;;;;;5134271;27;20255;-37
2023/09/09 10:50:52;;;;;;;7.27;6.60;;;40.50;1.00;;;;;;5135353;27;20399;-43
2023/09/09 10:53:23;;;;;;;9.30;8.40;;;40.90;1.00;;;;;;5132296;27;20395;-37
2023/09/09 10:55:55;;;;;;;10.47;7.40;;;40.80;1.00;;;;;;5111735;27;20440;-35
2023/09/09 10:58:37;;;;;;;7.47;6.80;;;40.80;1.00;;;;;;5130983;27;20420;-37
2023/09/09 11:01:03;;;;;;;8.27;6.90;;;41.00;1.00;;;;;;5115781;27;20792;-41
2023/09/09 11:03:50;;;;;;;8.53;7.63;;;41.10;1.00;;;;;;5115925;27;20451;-42
2023/09/09 11:06:28;;;;;;;7.90;7.20;;;40.80;1.00;;;;;;5132416;27;20671;-39
2023/09/09 11:09:02;;;;;;;9.43;7.10;;;40.60;1.00;;;;;;5115072;27;20436;-37
2023/09/09 11:11:42;;;;;;;8.13;7.43;;;40.20;1.00;;;;;;5134108;27;20471;-43
2023/09/09 11:14:08;;;;;;;7.50;6.87;;;40.50;1.00;;;;;;5133571;27;20528;-41
2023/09/09 11:16:39;;;;;;;7.40;6.70;;;40.80;1.00;;;;;;5113597;28;20446;-40
2023/09/09 11:19:11;;;;;;;8.60;7.70;;;41.20;1.00;;;;;;5134116;27;20443;-41
2023/09/09 11:21:55;;;;;;;8.93;7.00;;;41.70;1.00;;;;;;5134306;27;20408;-37
2023/09/09 11:24:21;;;;;;;8.13;7.43;;;41.70;1.00;;;;;;5134510;27;20391;-41
2023/09/09 11:26:48;;;;;;;7.37;6.63;;;41.60;1.00;;;;;;5133491;27;20915;-35
2023/09/09 11:29:16;;;;;;;8.00;6.60;;;41.70;1.00;;;;;;5135542;27;20285;-37
2023/09/09 11:31:42;;;;;;;9.10;6.87;;;41.90;1.00;;;;;;5132943;27;20443;-35
2023/09/09 11:34:07;;;;;;;8.03;7.33;;;42.10;1.00;;;;;;5115073;28;20421;-43
2023/09/09 11:36:33;;;;;;;7.57;6.87;;;42.30;1.00;;;;;;5131554;27;20413;-39
2023/09/09 11:39:00;;;;;;;7.73;6.57;;;42.30;1.00;;;;;;5131740;28;20186;-41
2023/09/09 11:41:28;;;;;;;9.20;7.20;;;42.40;1.00;;;;;;5132389;27;20528;-38
2023/09/09 11:44:03;;;;;;;6.80;5.90;;;42.20;1.00;;;;;;5133728;27;20413;-43
2023/09/09 11:46:43;;;;;;;7.73;7.10;;;42.50;1.00;;;;;;5133714;28;20802;-38
2023/09/09 11:49:11;;;;;;;9.23;8.07;;;42.60;1.00;;;;;;5113313;28;20433;-39
2023/09/09 11:51:37;;;;;;;7.40;6.80;;;42.40;1.00;;;;;;5133370;27;20504;-40
2023/09/09 11:54:06;;;;;;;8.07;7.37;;;42.20;1.00;;;;;;5116660;27;20440;-36
2023/09/09 11:56:33;;;;;;;9.27;8.47;;;42.10;1.00;;;;;;5133941;27;20440;-38
2023/09/09 11:58:59;;;;;;;9.43;8.63;;;42.40;1.00;;;;;;5131832;27;20430;-40
2023/09/09 12:01:25;;;;;;;22.37;10.37;;;42.40;1.00;;;;;;5132382;27;20413;-35
2023/09/09 12:03:51;;;;;;;34.33;12.97;;;42.30;1.00;;;;;;5131375;28;20640;-37
2023/09/09 12:06:21;;;;;;;13.50;9.33;;;41.80;1.00;;;;;;5133113;27;20197;-38
2023/09/09 12:08:49;;;;;;;10.73;9.63;;;40.90;1.00;;;;;;5113378;28;20464;-42
2023/09/09 12:11:16;;;;;;;8.87;8.20;;;40.30;1.00;;;;;;5132171;27;20529;-36
2023/09/09 12:13:43;;;;;;;8.97;8.17;;;40.70;1.00;;;;;;5115166;28;20950;-43
2023/09/09 12:16:09;;;;;;;17.83;9.07;;;41.20;1.00;;;;;;5134247;27;20578;-43
2023/09/09 12:18:35;;;;;;;9.23;8.40;;;41.80;1.00;;;;;;5115575;28;20540;-45
2023/09/09 12:21:03;;;;;;;9.30;8.50;;;41.50;1.00;;;;;;5132147;27;20206;-35
2023/09/09 12:23:34;;;;;;;9.40;8.67;;;41.60;1.00;;;;;;5131957;27;20179;-38
2023/09/09 12:26:20;;;;;;;9.13;8.33;;;41.90;1.00;;;;;;5134211;27;20428;-38
2023/09/09 12:29:07;;;;;;;8.73;8.03;;;41.90;1.00;;;;;;5133151;27;20462;-41
2023/09/09 12:31:33;;;;;;;8.43;7.70;;;41.80;1.00;;;;;;5132677;27;20425;-43
2023/09/09 12:33:59;;;;;;;9.40;8.40;;;41.90;1.00;;;;;;5116281;27;20721;-44
2023/09/09 12:36:25;;;;;;;9.87;8.97;;;41.60;1.00;;;;;;5134774;27;20405;-40
2023/09/09 12:38:51;;;;;;;8.20;7.50;;;41.00;1.00;;;;;;5136716;27;20695;-45
2023/09/09 12:41:18;;;;;;;9.10;7.80;;;40.20;1.00;;;;;;5137867;27;20183;-44
2023/09/09 12:43:50;;;;;;;7.80;7.10;;;40.00;1.00;;;;;;5137942;27;20624;-42